Time;durP1;ratioP1;P1;durP2;ratioP2;P2;SDS_P1;SDS_P2;PMS_P1;PMS_P2;Temp;Humidity;BMP_temperature;BMP_pressure;BME280_temperature;BME280_humidity;BME280_pressure;Samples;Min_cycle;Max_cycle;Signal;HPM_P1;HPM_P2
2022/01/19 00:01:04;;;;;;;11.87;10.20;;;3.00;95.70;;;;;;6229077;28;20499;-67
2022/01/19 00:04:09;;;;;;;14.97;9.80;;;3.00;95.80;;;;;;6228527;28;20614;-67
2022/01/19 00:07:13;;;;;;;18.03;10.53;;;2.90;95.70;;;;;;6229092;28;20824;-65
2022/01/19 00:10:20;;;;;;;15.97;10.93;;;2.90;95.80;;;;;;6229988;28;20836;-66
2022/01/19 00:13:23;;;;;;;13.37;11.20;;;2.80;95.90;;;;;;6229033;28;20464;-66
2022/01/19 00:16:26;;;;;;;15.50;11.77;;;2.80;96.00;;;;;;6228094;28;20483;-66
2022/01/19 00:19:31;;;;;;;15.87;10.90;;;2.80;96.10;;;;;;6228105;28;20863;-67
2022/01/19 00:22:34;;;;;;;11.37;10.40;;;2.80;96.00;;;;;;6228312;28;20472;-66
2022/01/19 00:25:38;;;;;;;15.53;12.33;;;2.80;96.00;;;;;;6228221;28;20832;-67
2022/01/19 00:28:41;;;;;;;12.50;10.37;;;2.70;95.80;;;;;;6227910;28;20503;-66
2022/01/19 00:31:44;;;;;;;16.53;11.40;;;2.80;95.90;;;;;;6227884;28;20484;-67
2022/01/19 00:34:49;;;;;;;17.10;11.43;;;2.70;95.90;;;;;;6227864;28;20472;-67
2022/01/19 00:37:52;;;;;;;21.80;10.73;;;2.70;96.00;;;;;;6228469;28;20511;-67
2022/01/19 00:40:57;;;;;;;12.47;9.87;;;2.70;96.00;;;;;;6228049;28;20471;-67
2022/01/19 00:44:00;;;;;;;12.17;10.97;;;2.60;96.10;;;;;;6229278;28;20551;-66
2022/01/19 00:47:04;;;;;;;15.40;10.47;;;2.60;96.20;;;;;;6227373;28;20479;-67
2022/01/19 00:50:13;;;;;;;13.23;9.23;;;2.60;96.20;;;;;;6218773;28;20487;-67
2022/01/19 00:53:16;;;;;;;14.30;10.73;;;2.60;96.30;;;;;;6214825;28;20493;-66
2022/01/19 00:56:19;;;;;;;19.20;11.43;;;2.60;96.30;;;;;;6216618;28;20486;-67
2022/01/19 00:59:22;;;;;;;15.43;11.10;;;2.60;96.10;;;;;;6227091;28;20483;-66
2022/01/19 01:02:25;;;;;;;10.80;9.70;;;2.50;96.10;;;;;;6196984;28;20491;-67
2022/01/19 01:05:30;;;;;;;16.63;10.40;;;2.50;96.20;;;;;;6207724;28;20469;-66
2022/01/19 01:08:33;;;;;;;14.40;10.33;;;2.50;96.30;;;;;;6213277;28;20531;-66
2022/01/19 01:11:46;;;;;;;15.03;10.63;;;2.40;96.30;;;;;;6223793;28;20475;-66
2022/01/19 01:18:18;;;;;;;11.73;10.40;;;2.40;96.30;;;;;;6227435;28;20464;-66
2022/01/19 01:21:23;;;;;;;21.13;12.03;;;2.30;96.30;;;;;;6225066;28;20491;-65
2022/01/19 01:24:26;;;;;;;20.67;11.07;;;2.30;96.40;;;;;;6228233;28;20482;-66
2022/01/19 01:27:29;;;;;;;12.57;11.37;;;2.20;96.40;;;;;;6227943;28;20467;-66
2022/01/19 01:30:33;;;;;;;13.33;9.93;;;2.20;96.50;;;;;;6229082;28;20487;-66
2022/01/19 01:33:36;;;;;;;14.43;10.50;;;2.20;96.50;;;;;;6227425;28;20471;-66
2022/01/19 01:36:41;;;;;;;12.53;10.50;;;2.20;96.50;;;;;;6226642;28;20475;-66
2022/01/19 01:39:44;;;;;;;14.87;10.70;;;2.10;96.40;;;;;;6227218;28;20499;-66
2022/01/19 01:42:48;;;;;;;11.33;9.50;;;2.10;96.50;;;;;;6226330;28;20467;-66
2022/01/19 01:45:55;;;;;;;17.73;11.70;;;2.10;96.60;;;;;;6226588;28;20463;-66
2022/01/19 01:48:58;;;;;;;19.63;11.00;;;2.00;96.60;;;;;;6226087;28;20972;-66
2022/01/19 01:55:25;;;;;;;20.43;14.00;;;2.00;96.60;;;;;;6226020;28;21009;-66
2022/01/19 01:58:32;;;;;;;16.50;12.47;;;2.00;96.40;;;;;;6226605;28;20475;-66
2022/01/19 02:01:35;;;;;;;18.03;12.10;;;2.00;96.40;;;;;;6226174;28;20472;-67
2022/01/19 02:04:41;;;;;;;18.73;13.03;;;2.00;96.30;;;;;;6221045;28;20964;-68
2022/01/19 02:08:00;;;;;;;16.20;12.70;;;1.90;96.30;;;;;;6225873;28;20498;-67
2022/01/19 02:11:27;;;;;;;17.73;12.77;;;1.90;96.40;;;;;;6225706;28;20495;-67
2022/01/19 02:24:40;;;;;;;20.37;10.87;;;1.90;96.40;;;;;;6226083;28;20475;-67
2022/01/19 02:41:07;;;;;;;15.80;9.47;;;1.70;96.70;;;;;;6225458;28;20534;-67
2022/01/19 02:44:14;;;;;;;10.13;8.53;;;1.60;96.70;;;;;;6225475;28;20494;-67
2022/01/19 02:50:41;;;;;;;11.90;8.80;;;1.60;96.90;;;;;;6192137;28;20513;-67
2022/01/19 02:53:45;;;;;;;12.13;9.80;;;1.60;96.60;;;;;;6225218;28;20471;-68
2022/01/19 02:56:49;;;;;;;9.60;8.27;;;1.60;96.90;;;;;;6224716;28;20978;-67
2022/01/19 03:06:27;;;;;;;13.00;9.57;;;1.60;96.50;;;;;;6223938;28;20467;-67
2022/01/19 03:10:08;;;;;;;18.83;9.17;;;1.50;96.40;;;;;;6214343;28;20484;-64
2022/01/19 03:13:12;;;;;;;10.53;8.80;;;1.50;96.60;;;;;;6224140;28;20813;-64
2022/01/19 03:16:17;;;;;;;11.90;8.47;;;1.40;96.70;;;;;;6225031;28;20468;-64
2022/01/19 03:19:20;;;;;;;12.60;9.23;;;1.50;96.80;;;;;;6224224;28;20813;-64
2022/01/19 03:22:30;;;;;;;11.47;8.87;;;1.50;96.80;;;;;;6223949;28;20483;-66
2022/01/19 03:25:38;;;;;;;15.03;8.80;;;1.50;96.70;;;;;;6224451;28;20955;-66
2022/01/19 03:28:41;;;;;;;19.40;9.50;;;1.40;96.70;;;;;;6224942;28;20476;-65
2022/01/19 03:31:44;;;;;;;12.17;8.63;;;1.40;96.70;;;;;;6224207;28;20505;-68
2022/01/19 03:34:48;;;;;;;13.47;9.40;;;1.40;96.70;;;;;;6227127;28;20475;-69
2022/01/19 03:37:51;;;;;;;9.40;8.00;;;1.40;96.80;;;;;;6228269;28;20518;-67
2022/01/19 03:40:55;;;;;;;14.27;8.97;;;1.40;96.80;;;;;;6228121;28;20799;-67
2022/01/19 03:43:59;;;;;;;12.13;9.27;;;1.40;96.60;;;;;;6228292;28;20472;-65
2022/01/19 03:47:04;;;;;;;12.50;9.50;;;1.40;96.60;;;;;;6228304;28;21249;-64
2022/01/19 03:50:08;;;;;;;14.77;8.60;;;1.40;96.70;;;;;;6229359;28;20614;-66
2022/01/19 03:53:11;;;;;;;10.20;7.63;;;1.30;96.60;;;;;;6230048;28;20529;-66
2022/01/19 03:56:16;;;;;;;16.20;9.20;;;1.30;96.50;;;;;;6229675;28;20479;-68
2022/01/19 03:59:19;;;;;;;18.23;9.63;;;1.30;96.30;;;;;;6229431;28;20483;-67
2022/01/19 04:02:22;;;;;;;15.30;9.57;;;1.20;96.40;;;;;;6228512;28;21050;-67
2022/01/19 04:05:39;;;;;;;15.20;8.50;;;1.10;96.60;;;;;;6228470;28;20467;-67
2022/01/19 04:08:42;;;;;;;13.33;9.10;;;1.20;96.70;;;;;;6228827;28;20480;-64
2022/01/19 04:11:47;;;;;;;15.50;8.80;;;1.10;96.60;;;;;;6228782;28;20524;-66
2022/01/19 04:14:50;;;;;;;11.53;8.60;;;1.10;96.60;;;;;;6225858;28;20468;-66
2022/01/19 04:17:54;;;;;;;11.93;8.90;;;1.00;96.70;;;;;;6228886;28;20487;-66
2022/01/19 04:21:01;;;;;;;11.90;8.50;;;1.00;96.70;;;;;;6228422;28;20963;-65
2022/01/19 04:24:04;;;;;;;12.90;8.97;;;1.00;96.70;;;;;;6228141;28;20445;-65
2022/01/19 04:30:29;;;;;;;9.50;7.83;;;1.00;96.70;;;;;;6227657;28;20839;-66
2022/01/19 04:33:32;;;;;;;12.70;8.43;;;1.00;96.70;;;;;;6226659;28;20491;-67
2022/01/19 04:36:58;;;;;;;17.13;9.33;;;0.90;96.80;;;;;;6227282;28;20529;-66
2022/01/19 05:04:03;;;;;;;13.93;8.63;;;0.90;97.00;;;;;;6156232;28;20472;-65
2022/01/19 05:07:15;;;;;;;9.40;7.77;;;0.90;96.90;;;;;;6227812;28;20982;-65
2022/01/19 05:13:50;;;;;;;14.00;8.20;;;0.90;96.80;;;;;;6195242;28;20622;-68
2022/01/19 05:16:54;;;;;;;14.77;8.80;;;0.90;96.80;;;;;;6218609;28;20472;-67
2022/01/19 05:19:58;;;;;;;11.63;9.30;;;0.90;96.80;;;;;;6227178;28;20527;-65
2022/01/19 05:23:01;;;;;;;13.13;7.47;;;0.80;96.80;;;;;;6227179;28;20478;-65
2022/01/19 05:26:05;;;;;;;15.83;8.87;;;0.90;96.90;;;;;;6226729;28;20471;-64
2022/01/19 05:29:08;;;;;;;14.07;8.53;;;0.90;96.80;;;;;;6226759;28;20518;-64
2022/01/19 05:32:12;;;;;;;12.90;9.37;;;0.90;96.80;;;;;;6226615;28;20853;-66
2022/01/19 05:35:16;;;;;;;12.10;9.27;;;0.80;96.80;;;;;;6226970;28;20487;-66
2022/01/19 05:38:19;;;;;;;13.27;8.57;;;0.70;96.90;;;;;;6226920;28;20476;-66
2022/01/19 05:41:22;;;;;;;13.33;8.67;;;0.70;97.00;;;;;;6226330;28;20479;-66
2022/01/19 05:44:25;;;;;;;12.77;8.93;;;0.70;96.90;;;;;;6226781;28;20467;-66
2022/01/19 05:47:30;;;;;;;21.53;9.90;;;0.70;96.90;;;;;;6226191;28;20467;-67
2022/01/19 05:50:33;;;;;;;21.33;10.60;;;0.70;96.90;;;;;;6226093;28;20486;-66
2022/01/19 05:53:37;;;;;;;19.17;10.97;;;0.60;96.90;;;;;;6226362;28;20480;-66
2022/01/19 05:56:40;;;;;;;16.30;11.43;;;0.70;97.10;;;;;;6226435;28;20476;-68
2022/01/19 05:59:43;;;;;;;17.37;10.70;;;0.60;97.10;;;;;;6226110;28;20476;-64
2022/01/19 06:02:48;;;;;;;17.70;10.87;;;0.60;97.00;;;;;;6225751;28;20487;-64
2022/01/19 06:05:51;;;;;;;17.27;11.40;;;0.60;97.00;;;;;;6226811;28;20444;-64
2022/01/19 06:09:08;;;;;;;18.10;11.77;;;0.60;97.00;;;;;;6226456;28;20448;-68
2022/01/19 06:12:13;;;;;;;19.17;11.03;;;0.50;97.00;;;;;;6226624;28;20467;-69
2022/01/19 06:15:16;;;;;;;13.07;10.43;;;0.60;97.20;;;;;;6226054;28;20457;-68
2022/01/19 06:18:21;;;;;;;12.83;10.63;;;0.50;97.10;;;;;;6220890;28;20479;-68
2022/01/19 06:21:24;;;;;;;20.37;12.27;;;0.60;97.20;;;;;;6225018;28;20971;-64
2022/01/19 06:24:28;;;;;;;13.30;10.97;;;0.50;97.10;;;;;;6226699;28;20482;-64
2022/01/19 06:27:31;;;;;;;12.40;11.23;;;0.50;97.20;;;;;;6225407;28;20479;-66
2022/01/19 06:30:34;;;;;;;14.97;11.40;;;0.50;97.20;;;;;;6225172;28;20467;-65
2022/01/19 06:33:39;;;;;;;20.93;10.30;;;0.50;97.20;;;;;;6226011;28;20855;-67
2022/01/19 06:36:42;;;;;;;19.83;9.73;;;0.50;97.20;;;;;;6228560;28;20479;-67
2022/01/19 06:39:45;;;;;;;12.40;9.87;;;0.50;97.20;;;;;;6228595;28;20471;-68
2022/01/19 06:42:48;;;;;;;14.77;9.10;;;0.50;97.10;;;;;;6227034;28;20467;-64
2022/01/19 06:45:52;;;;;;;12.73;8.87;;;0.30;97.40;;;;;;6226247;28;20495;-67
2022/01/19 06:48:57;;;;;;;15.43;9.13;;;0.40;97.50;;;;;;6225940;28;20468;-65
2022/01/19 06:52:01;;;;;;;14.33;9.00;;;0.40;97.20;;;;;;6225474;28;20476;-64
2022/01/19 06:55:05;;;;;;;14.63;11.23;;;0.40;97.20;;;;;;6225131;28;20486;-64
2022/01/19 06:58:08;;;;;;;20.77;11.10;;;0.50;97.20;;;;;;6225748;28;20487;-66
2022/01/19 07:01:11;;;;;;;20.03;10.40;;;0.50;97.20;;;;;;6226253;28;20472;-64
2022/01/19 07:04:17;;;;;;;18.87;9.87;;;0.50;97.20;;;;;;6225725;28;20873;-68
2022/01/19 07:07:21;;;;;;;15.93;10.80;;;0.60;97.10;;;;;;6227992;28;20471;-68
2022/01/19 07:10:25;;;;;;;17.10;11.47;;;0.60;96.90;;;;;;6232717;28;20998;-68
2022/01/19 07:13:28;;;;;;;15.00;10.70;;;0.60;96.90;;;;;;6232259;28;20476;-68
2022/01/19 07:16:32;;;;;;;14.97;10.60;;;0.70;96.90;;;;;;6230442;28;20487;-69
2022/01/19 07:19:37;;;;;;;13.93;10.67;;;0.70;97.00;;;;;;6229772;28;20809;-64
2022/01/19 07:22:40;;;;;;;20.90;12.20;;;0.70;97.10;;;;;;6230193;28;20468;-64
2022/01/19 07:25:43;;;;;;;20.73;13.23;;;0.70;97.30;;;;;;6224243;28;20476;-64
2022/01/19 07:28:46;;;;;;;18.07;12.80;;;0.80;97.50;;;;;;6228559;28;20947;-64
2022/01/19 07:31:50;;;;;;;15.33;11.43;;;0.80;97.00;;;;;;6229153;28;20487;-64
2022/01/19 07:34:54;;;;;;;16.63;11.20;;;0.90;96.90;;;;;;6231774;28;20831;-64
2022/01/19 07:37:58;;;;;;;17.03;12.23;;;1.00;96.80;;;;;;6230396;28;20468;-65
2022/01/19 07:41:01;;;;;;;16.33;10.53;;;1.00;96.70;;;;;;6230422;28;20975;-65
2022/01/19 07:44:05;;;;;;;19.83;10.70;;;1.00;96.60;;;;;;6230650;28;20480;-65
2022/01/19 07:47:08;;;;;;;15.67;11.30;;;1.10;96.50;;;;;;6230180;28;20471;-65
2022/01/19 07:50:13;;;;;;;17.03;11.13;;;1.10;96.40;;;;;;6230078;28;20479;-68
2022/01/19 07:53:17;;;;;;;16.60;11.17;;;1.10;96.40;;;;;;6229327;28;20959;-65
2022/01/19 07:56:21;;;;;;;19.50;10.80;;;1.20;96.50;;;;;;6228107;28;20488;-65
2022/01/19 07:59:28;;;;;;;14.07;10.67;;;1.30;96.50;;;;;;6230662;28;20495;-65
2022/01/19 08:02:33;;;;;;;13.60;10.87;;;1.40;96.50;;;;;;6230373;28;20472;-65
2022/01/19 08:05:39;;;;;;;23.03;12.90;;;1.40;96.30;;;;;;6227157;28;20483;-65
2022/01/19 08:08:42;;;;;;;16.50;12.17;;;1.50;96.50;;;;;;6227223;28;20476;-66
2022/01/19 08:11:45;;;;;;;17.60;10.20;;;1.50;96.40;;;;;;6216140;28;20492;-67
2022/01/19 08:14:49;;;;;;;17.40;11.50;;;1.50;96.20;;;;;;6228056;28;20501;-68
2022/01/19 08:17:52;;;;;;;19.30;10.10;;;1.50;96.40;;;;;;6222190;28;20549;-68
2022/01/19 08:20:56;;;;;;;19.10;11.57;;;1.60;96.30;;;;;;6217002;28;20479;-68
2022/01/19 08:24:01;;;;;;;12.80;9.93;;;1.70;96.60;;;;;;6214611;28;20425;-68
2022/01/19 08:27:04;;;;;;;18.13;10.27;;;1.80;96.60;;;;;;6213555;28;20524;-68
2022/01/19 08:30:10;;;;;;;18.90;9.53;;;1.90;96.50;;;;;;6219054;28;20464;-68
2022/01/19 08:33:13;;;;;;;13.57;10.80;;;2.00;96.40;;;;;;6219303;28;20521;-68
2022/01/19 08:36:18;;;;;;;16.33;10.90;;;2.10;96.30;;;;;;6204770;28;20464;-67
2022/01/19 08:39:21;;;;;;;15.40;10.00;;;2.20;96.20;;;;;;6218235;28;20465;-66
2022/01/19 08:42:24;;;;;;;13.70;10.00;;;2.30;96.20;;;;;;6220874;28;20475;-67
2022/01/19 08:45:28;;;;;;;12.13;10.23;;;2.40;96.00;;;;;;6214783;28;20464;-67
2022/01/19 08:48:31;;;;;;;13.73;10.00;;;2.50;95.90;;;;;;6214207;28;20480;-68
2022/01/19 08:51:36;;;;;;;18.63;9.80;;;2.60;95.80;;;;;;6216179;28;20476;-67
2022/01/19 08:54:39;;;;;;;15.63;9.97;;;2.70;95.60;;;;;;6215661;28;20476;-67
2022/01/19 08:57:42;;;;;;;11.17;9.00;;;2.80;95.40;;;;;;6217667;28;20468;-67
2022/01/19 09:00:47;;;;;;;13.73;8.77;;;2.80;94.70;;;;;;6213710;28;20464;-67
2022/01/19 09:03:50;;;;;;;18.60;8.87;;;2.90;94.70;;;;;;6203484;28;20905;-67
2022/01/19 09:06:55;;;;;;;16.20;10.10;;;3.00;94.70;;;;;;6208555;28;20975;-67
2022/01/19 09:09:58;;;;;;;12.93;11.57;;;3.10;94.60;;;;;;6225284;28;20810;-67
2022/01/19 09:13:02;;;;;;;15.17;11.40;;;3.10;94.30;;;;;;6208631;28;20518;-66
2022/01/19 09:16:06;;;;;;;19.47;12.20;;;3.20;94.50;;;;;;6216978;28;20467;-66
2022/01/19 09:19:09;;;;;;;21.30;12.90;;;3.00;94.90;;;;;;6219610;28;20831;-69
2022/01/19 09:22:13;;;;;;;19.33;12.80;;;3.00;95.00;;;;;;6202646;28;20879;-67
2022/01/19 09:25:17;;;;;;;14.20;12.10;;;2.90;95.00;;;;;;6202675;28;20477;-66
2022/01/19 09:28:20;;;;;;;17.00;13.03;;;2.80;95.20;;;;;;6202919;28;20472;-67
2022/01/19 09:31:23;;;;;;;27.00;15.60;;;2.80;95.40;;;;;;6192115;28;20481;-67
2022/01/19 09:34:26;;;;;;;20.00;14.57;;;2.80;95.40;;;;;;6203112;28;20476;-67
2022/01/19 09:37:31;;;;;;;18.20;13.00;;;2.80;95.40;;;;;;6202342;28;20488;-67
2022/01/19 09:40:54;;;;;;;15.13;13.03;;;2.80;95.50;;;;;;6206653;28;20562;-67
2022/01/19 09:43:58;;;;;;;14.33;12.33;;;2.90;95.50;;;;;;6226521;28;20479;-66
2022/01/19 09:47:02;;;;;;;19.40;13.80;;;3.00;95.50;;;;;;6221913;28;20475;-67
2022/01/19 09:50:06;;;;;;;19.80;14.40;;;3.00;95.50;;;;;;6217582;28;20479;-68
2022/01/19 09:53:11;;;;;;;16.43;12.87;;;3.30;95.30;;;;;;6225944;28;21034;-67
2022/01/19 09:56:16;;;;;;;19.00;13.07;;;3.30;94.70;;;;;;6226041;28;20476;-66
2022/01/19 09:59:19;;;;;;;13.43;12.10;;;3.30;94.40;;;;;;6225797;28;20979;-68
2022/01/19 10:02:23;;;;;;;19.47;13.73;;;3.50;94.20;;;;;;6226471;28;20971;-66
2022/01/19 10:05:31;;;;;;;19.87;11.60;;;3.60;94.40;;;;;;6226331;28;20818;-66
2022/01/19 10:08:38;;;;;;;16.13;11.60;;;3.70;94.30;;;;;;6226145;28;20799;-66
2022/01/19 10:18:28;;;;;;;18.23;12.23;;;4.00;94.00;;;;;;6222878;28;20491;-66
2022/01/19 10:21:32;;;;;;;18.60;12.73;;;4.10;93.90;;;;;;6217152;28;20468;-65
2022/01/19 10:24:46;;;;;;;17.73;11.90;;;4.20;93.60;;;;;;6225380;28;20956;-68
2022/01/19 10:27:50;;;;;;;19.50;12.30;;;4.30;93.90;;;;;;6225863;28;20562;-68
2022/01/19 10:30:53;;;;;;;16.30;11.27;;;4.50;93.40;;;;;;6225508;28;20471;-65
2022/01/19 10:34:10;;;;;;;21.90;13.00;;;4.70;93.10;;;;;;6225310;28;20482;-63
2022/01/19 10:37:13;;;;;;;15.73;13.33;;;4.90;92.90;;;;;;6225081;28;20961;-68
2022/01/19 10:40:22;;;;;;;18.77;12.50;;;5.00;92.90;;;;;;6225686;28;20487;-66
2022/01/19 10:43:29;;;;;;;20.07;13.10;;;5.20;92.30;;;;;;6204318;28;20473;-68
2022/01/19 10:46:34;;;;;;;19.17;12.60;;;5.60;92.20;;;;;;6206098;28;20508;-66
2022/01/19 10:49:52;;;;;;;21.47;13.70;;;7.10;90.60;;;;;;6206206;28;20487;-65
2022/01/19 10:52:57;;;;;;;17.23;12.17;;;7.40;87.30;;;;;;6205672;28;21077;-66
2022/01/19 10:56:02;;;;;;;15.63;12.27;;;7.00;87.80;;;;;;6205789;28;20480;-67
2022/01/19 10:59:08;;;;;;;23.87;13.33;;;6.80;87.60;;;;;;6206010;28;20476;-66
2022/01/19 11:02:12;;;;;;;15.23;12.63;;;6.50;88.50;;;;;;6207400;28;20472;-69
2022/01/19 11:05:16;;;;;;;21.50;13.77;;;6.40;89.50;;;;;;6206071;28;20623;-68
2022/01/19 11:08:21;;;;;;;14.90;13.30;;;8.70;89.10;;;;;;6213043;28;20474;-68
2022/01/19 11:11:26;;;;;;;15.13;11.30;;;10.80;74.70;;;;;;6229166;28;20498;-67
2022/01/19 11:14:29;;;;;;;18.70;13.53;;;10.80;70.50;;;;;;6229834;28;20792;-69
2022/01/19 11:17:32;;;;;;;17.40;12.87;;;10.20;70.20;;;;;;6229433;28;20472;-67
2022/01/19 11:20:43;;;;;;;15.10;11.37;;;10.10;72.30;;;;;;6228041;28;20862;-67
2022/01/19 11:23:55;;;;;;;15.63;12.77;;;13.10;65.50;;;;;;6227846;28;20464;-67
2022/01/19 11:27:00;;;;;;;17.30;13.50;;;16.80;53.60;;;;;;6228489;28;20436;-67
2022/01/19 11:30:17;;;;;;;13.90;12.50;;;20.20;44.60;;;;;;6228458;28;20483;-68
2022/01/19 11:33:25;;;;;;;13.10;11.80;;;22.30;37.50;;;;;;6227831;28;20236;-67
2022/01/19 11:36:31;;;;;;;14.50;12.50;;;25.20;32.70;;;;;;6228977;28;20237;-68
2022/01/19 11:39:34;;;;;;;15.40;12.97;;;26.90;28.40;;;;;;6230596;28;20234;-69
2022/01/19 11:42:39;;;;;;;15.63;14.03;;;28.30;26.40;;;;;;6231450;28;20228;-68
2022/01/19 11:45:43;;;;;;;14.90;13.50;;;29.10;24.70;;;;;;6230028;28;20320;-68
2022/01/19 11:48:46;;;;;;;15.10;13.63;;;30.30;23.50;;;;;;6229751;28;20246;-69
2022/01/19 11:51:56;;;;;;;17.30;14.00;;;29.70;22.80;;;;;;6231186;28;20344;-67
2022/01/19 11:55:16;;;;;;;16.23;14.63;;;30.50;22.80;;;;;;6229650;28;20242;-68
2022/01/19 11:58:23;;;;;;;15.20;13.97;;;31.30;21.80;;;;;;6231037;28;20229;-69
2022/01/19 12:01:27;;;;;;;15.03;13.77;;;31.00;21.40;;;;;;6234989;28;20236;-69
2022/01/19 12:04:38;;;;;;;14.77;13.43;;;31.10;21.20;;;;;;6238798;28;20541;-69
2022/01/19 12:07:45;;;;;;;15.87;14.17;;;31.70;20.50;;;;;;6237544;28;20242;-69
2022/01/19 12:10:52;;;;;;;15.13;13.57;;;31.70;20.50;;;;;;6235999;28;20229;-69
2022/01/19 12:14:09;;;;;;;15.40;13.80;;;32.20;20.20;;;;;;6233699;28;20228;-68
2022/01/19 12:17:25;;;;;;;15.65;14.25;;;31.50;20.30;;;;;;6228401;28;20239;-68
2022/01/19 12:20:50;;;;;;;15.75;14.23;;;32.20;20.00;;;;;;6228664;28;20243;-68
2022/01/19 12:23:53;;;;;;;16.58;15.00;;;32.40;19.70;;;;;;6229028;28;20212;-68
2022/01/19 12:27:04;;;;;;;15.00;13.25;;;33.10;19.50;;;;;;6229258;28;20208;-68
2022/01/19 12:30:13;;;;;;;16.70;14.75;;;33.20;18.90;;;;;;6228986;28;20544;-68
2022/01/19 12:33:16;;;;;;;14.75;13.38;;;33.20;18.80;;;;;;6228728;28;20236;-68
2022/01/19 12:36:41;;;;;;;15.45;13.88;;;33.20;18.70;;;;;;6228279;28;20236;-68
2022/01/19 12:39:46;;;;;;;16.85;15.13;;;33.40;18.50;;;;;;6227721;28;20251;-69
2022/01/19 12:42:50;;;;;;;16.65;15.05;;;33.30;18.40;;;;;;6218489;28;20243;-69
2022/01/19 12:45:56;;;;;;;15.80;14.40;;;32.50;19.00;;;;;;6227763;28;20232;-71
2022/01/19 12:48:59;;;;;;;15.77;14.40;;;32.20;19.30;;;;;;6227953;28;20239;-72
2022/01/19 12:52:16;;;;;;;17.43;15.07;;;32.10;19.10;;;;;;6228150;28;20234;-69
2022/01/19 12:55:21;;;;;;;18.17;14.63;;;30.70;19.90;;;;;;6227904;28;20662;-69
2022/01/19 12:58:32;;;;;;;16.03;14.33;;;30.60;19.80;;;;;;6229502;28;20586;-69
2022/01/19 13:01:39;;;;;;;14.97;13.57;;;30.20;20.20;;;;;;6227481;28;20239;-68
2022/01/19 13:04:46;;;;;;;16.30;14.70;;;30.40;20.10;;;;;;6227330;28;20290;-68
2022/01/19 13:07:54;;;;;;;17.10;15.40;;;30.70;19.90;;;;;;6226680;28;20298;-66
2022/01/19 13:11:10;;;;;;;16.50;14.90;;;30.80;19.80;;;;;;6227759;28;20281;-67
2022/01/19 13:14:14;;;;;;;13.97;12.70;;;30.30;19.80;;;;;;6227493;28;20293;-68
2022/01/19 13:17:18;;;;;;;15.43;13.80;;;30.20;19.70;;;;;;6227122;28;20232;-68
2022/01/19 13:20:50;;;;;;;17.40;13.20;;;30.10;20.00;;;;;;6227305;28;20284;-70
2022/01/19 13:23:56;;;;;;;16.97;14.13;;;30.80;19.70;;;;;;6227738;28;20224;-70
2022/01/19 13:27:03;;;;;;;15.03;13.33;;;31.10;19.50;;;;;;6227465;28;20188;-68
2022/01/19 13:30:12;;;;;;;13.80;12.20;;;31.00;19.40;;;;;;6228803;28;20229;-66
2022/01/19 13:33:17;;;;;;;14.60;13.27;;;30.40;19.60;;;;;;6221393;28;20235;-68
2022/01/19 13:36:26;;;;;;;13.63;12.10;;;29.50;19.90;;;;;;6223776;28;20258;-66
2022/01/19 13:39:33;;;;;;;15.13;13.53;;;29.10;20.30;;;;;;6226030;28;20715;-65
2022/01/19 13:42:42;;;;;;;14.47;13.07;;;29.20;20.30;;;;;;6226356;28;20234;-65
2022/01/19 13:45:50;;;;;;;15.27;13.77;;;28.70;20.50;;;;;;6221347;28;20657;-65
2022/01/19 13:48:59;;;;;;;16.80;13.70;;;27.80;21.00;;;;;;6225271;28;20224;-67
2022/01/19 13:52:02;;;;;;;15.50;11.97;;;27.80;21.40;;;;;;6225948;28;20246;-67
2022/01/19 13:55:06;;;;;;;14.03;12.67;;;27.90;21.90;;;;;;6225582;28;20566;-66
2022/01/19 13:58:12;;;;;;;14.47;12.77;;;27.80;21.50;;;;;;6223831;28;20284;-66
2022/01/19 14:01:21;;;;;;;14.90;13.50;;;27.30;21.50;;;;;;6225652;28;20232;-66
2022/01/19 14:04:27;;;;;;;15.00;13.47;;;26.40;22.30;;;;;;6225624;28;20224;-66
2022/01/19 14:07:31;;;;;;;13.87;12.67;;;26.20;22.70;;;;;;6225975;28;20229;-66
2022/01/19 14:10:46;;;;;;;14.90;13.33;;;26.00;22.70;;;;;;6225390;28;20245;-66
2022/01/19 14:13:58;;;;;;;16.10;14.50;;;25.40;23.40;;;;;;6224081;28;20235;-66
2022/01/19 14:17:01;;;;;;;14.70;13.30;;;24.40;24.20;;;;;;6224277;28;20237;-65
2022/01/19 14:20:16;;;;;;;15.47;13.93;;;23.90;24.70;;;;;;6226191;28;20647;-64
2022/01/19 14:23:24;;;;;;;16.40;14.83;;;23.00;25.40;;;;;;6225491;28;20610;-65
2022/01/19 14:26:27;;;;;;;16.93;13.80;;;21.50;26.70;;;;;;6226412;28;20704;-65
2022/01/19 14:29:31;;;;;;;15.17;13.67;;;20.00;28.10;;;;;;6225294;28;20224;-65
2022/01/19 14:32:39;;;;;;;14.80;13.37;;;18.10;30.20;;;;;;6225188;28;20863;-64
2022/01/19 14:35:51;;;;;;;19.17;13.87;;;16.80;32.10;;;;;;6225118;28;20851;-64
2022/01/19 14:38:59;;;;;;;15.57;13.10;;;15.60;34.00;;;;;;6225305;28;20487;-64
2022/01/19 14:42:09;;;;;;;17.73;14.57;;;14.40;36.00;;;;;;6225497;28;20484;-64
2022/01/19 14:45:19;;;;;;;15.10;13.00;;;13.30;38.10;;;;;;6226421;28;20467;-64
2022/01/19 14:48:25;;;;;;;18.13;15.07;;;12.20;40.50;;;;;;6227278;28;20471;-63
2022/01/19 14:51:31;;;;;;;16.03;13.57;;;11.20;43.00;;;;;;6222749;28;20468;-64
2022/01/19 14:54:40;;;;;;;19.80;15.33;;;10.20;45.50;;;;;;6227046;28;20542;-64
2022/01/19 14:57:43;;;;;;;17.93;14.17;;;9.50;48.40;;;;;;6225862;28;20971;-64
2022/01/19 15:00:49;;;;;;;19.37;14.10;;;9.20;49.60;;;;;;6225361;28;20968;-63
2022/01/19 15:03:52;;;;;;;17.73;14.80;;;8.90;51.00;;;;;;6225091;28;20482;-63
2022/01/19 15:06:59;;;;;;;17.03;15.10;;;8.70;51.90;;;;;;6224930;28;20478;-63
2022/01/19 15:10:02;;;;;;;21.20;14.17;;;8.40;53.50;;;;;;6224360;28;20484;-63
2022/01/19 15:13:07;;;;;;;20.17;15.43;;;8.20;55.00;;;;;;6225350;28;20472;-62
2022/01/19 15:16:10;;;;;;;15.53;13.90;;;8.00;55.80;;;;;;6225415;28;20475;-64
2022/01/19 15:19:14;;;;;;;17.40;14.70;;;7.90;56.70;;;;;;6223790;28;20476;-65
2022/01/19 15:22:18;;;;;;;19.87;15.03;;;7.70;57.80;;;;;;6225428;28;20483;-66
2022/01/19 15:25:22;;;;;;;21.17;14.23;;;7.60;58.60;;;;;;6225278;28;20476;-66
2022/01/19 15:28:25;;;;;;;20.83;16.00;;;7.40;59.70;;;;;;6223790;28;20476;-64
2022/01/19 15:31:29;;;;;;;18.10;14.10;;;7.30;60.90;;;;;;6228217;28;20475;-64
2022/01/19 15:34:32;;;;;;;18.67;15.53;;;7.20;62.00;;;;;;6229396;28;20963;-64
2022/01/19 15:37:36;;;;;;;21.37;15.07;;;7.10;62.80;;;;;;6228969;28;20489;-64
2022/01/19 15:40:41;;;;;;;18.50;15.27;;;7.00;63.80;;;;;;6229095;28;20482;-64
2022/01/19 15:43:44;;;;;;;20.90;14.13;;;6.90;64.80;;;;;;6228872;28;21025;-65
2022/01/19 15:46:49;;;;;;;23.07;17.67;;;6.80;65.80;;;;;;6228605;28;21103;-64
2022/01/19 15:49:53;;;;;;;18.83;14.53;;;6.70;66.50;;;;;;6229030;28;20479;-65
2022/01/19 15:52:58;;;;;;;19.10;14.27;;;6.60;67.90;;;;;;6228671;28;20971;-69
2022/01/19 15:56:01;;;;;;;22.93;14.80;;;6.50;69.20;;;;;;6219978;28;20482;-69
2022/01/19 15:59:04;;;;;;;21.73;16.27;;;6.40;69.70;;;;;;6228589;28;20494;-68
2022/01/19 16:02:08;;;;;;;21.77;15.47;;;6.40;70.40;;;;;;6228435;28;20473;-69
2022/01/19 16:05:11;;;;;;;19.57;14.47;;;6.30;71.10;;;;;;6228665;28;20468;-69
2022/01/19 16:08:16;;;;;;;21.90;15.93;;;6.30;71.90;;;;;;6228382;28;20467;-67
2022/01/19 16:11:19;;;;;;;21.13;16.43;;;6.20;72.50;;;;;;6227962;28;20545;-67
2022/01/19 16:14:23;;;;;;;25.60;18.83;;;6.10;72.90;;;;;;6228269;28;20472;-67
2022/01/19 16:17:26;;;;;;;21.13;17.07;;;6.10;73.40;;;;;;6228561;28;20476;-68
2022/01/19 16:20:29;;;;;;;27.47;18.23;;;6.00;73.70;;;;;;6228038;28;20488;-68
2022/01/19 16:26:55;;;;;;;27.67;18.20;;;6.00;74.60;;;;;;6228449;28;20475;-69
2022/01/19 16:29:58;;;;;;;29.60;19.60;;;6.00;74.90;;;;;;6228563;28;20474;-69
2022/01/19 16:33:01;;;;;;;26.77;20.20;;;5.90;75.50;;;;;;6228234;28;20520;-70
2022/01/19 16:36:06;;;;;;;28.90;20.40;;;5.90;75.70;;;;;;6230732;28;21097;-69
2022/01/19 16:39:13;;;;;;;25.03;18.30;;;5.80;75.90;;;;;;6233180;28;20425;-66
2022/01/19 16:42:19;;;;;;;23.83;17.20;;;5.80;76.50;;;;;;6232972;28;20804;-68
2022/01/19 16:45:22;;;;;;;28.67;18.07;;;5.60;76.50;;;;;;6228457;28;20468;-69
2022/01/19 16:48:26;;;;;;;25.37;18.37;;;5.60;77.10;;;;;;6231497;28;20482;-68
2022/01/19 16:51:29;;;;;;;28.50;20.33;;;5.50;77.70;;;;;;6233740;28;20467;-68
2022/01/19 16:54:35;;;;;;;25.00;20.80;;;5.40;78.10;;;;;;6231379;28;20464;-68
2022/01/19 16:57:38;;;;;;;24.60;20.90;;;5.30;78.40;;;;;;6218756;28;20816;-67
2022/01/19 17:00:41;;;;;;;25.53;19.60;;;5.30;78.90;;;;;;6218169;28;20480;-70
2022/01/19 17:03:45;;;;;;;25.87;19.20;;;5.20;79.40;;;;;;6219303;28;20491;-69
2022/01/19 17:06:49;;;;;;;23.60;18.90;;;5.10;79.70;;;;;;6225078;28;20563;-68
2022/01/19 17:09:54;;;;;;;22.93;19.40;;;5.00;80.10;;;;;;6228911;28;20476;-67
2022/01/19 17:13:02;;;;;;;23.13;19.73;;;5.00;81.00;;;;;;6223691;28;20468;-69